createdAt,value
2022-07-27T00:01:28.436Z,56.60
2022-07-27T00:06:30.721Z,56.71
2022-07-27T00:11:34.280Z,57.32
2022-07-27T00:16:36.408Z,57.38
2022-07-27T00:21:44.451Z,58.04
2022-07-27T00:26:48.428Z,58.54
2022-07-27T00:31:50.546Z,58.82
2022-07-27T00:36:52.796Z,58.90
2022-07-27T00:41:56.244Z,59.41
2022-07-27T00:46:59.172Z,60.05
2022-07-27T00:52:01.161Z,60.40
2022-07-27T00:57:04.809Z,61.68
2022-07-27T01:02:11.270Z,60.77
2022-07-27T01:07:14.352Z,62.02
2022-07-27T01:12:19.794Z,62.03
2022-07-27T01:17:21.761Z,63.13
2022-07-27T01:22:25.464Z,63.30
2022-07-27T01:27:27.699Z,63.13
2022-07-27T01:32:30.269Z,64.01
2022-07-27T01:37:33.803Z,64.54
2022-07-27T01:42:35.868Z,65.27
2022-07-27T01:47:37.985Z,66.36
2022-07-27T01:52:41.532Z,67.44
2022-07-27T01:57:43.677Z,67.50
2022-07-27T02:02:46.098Z,67.28
2022-07-27T02:07:49.496Z,69.14
2022-07-27T02:12:51.598Z,68.80
2022-07-27T02:17:54.052Z,68.71
2022-07-27T02:22:58.070Z,69.96
2022-07-27T02:28:00.094Z,70.50
2022-07-27T02:33:02.378Z,70.39
2022-07-27T02:38:07.447Z,71.01
2022-07-27T02:43:09.539Z,71.63
2022-07-27T02:53:36.759Z,72.66
2022-07-27T02:58:38.826Z,73.05
2022-07-27T03:03:41.274Z,73.72
2022-07-27T03:08:44.795Z,73.83
2022-07-27T03:13:46.912Z,74.35
2022-07-27T03:18:49.869Z,74.95
2022-07-27T03:23:53.717Z,74.83
2022-07-27T03:28:55.867Z,75.01
2022-07-27T03:33:58.197Z,75.19
2022-07-27T03:39:05.934Z,74.60
2022-07-27T03:44:08.289Z,73.75
2022-07-27T03:49:14.974Z,73.24
2022-07-27T03:54:18.355Z,72.34
2022-07-27T03:59:20.609Z,71.92
2022-07-27T04:04:22.534Z,71.41
2022-07-27T04:09:25.595Z,71.26
2022-07-27T04:14:29.666Z,71.63
2022-07-27T04:19:31.720Z,71.84
2022-07-27T04:24:35.173Z,72.54
2022-07-27T04:29:37.270Z,71.41
2022-07-27T04:34:39.481Z,71.54
2022-07-27T04:39:42.981Z,70.38
2022-07-27T04:44:44.657Z,67.18
2022-07-27T04:49:46.796Z,62.80
2022-07-27T04:54:53.123Z,63.00
2022-07-27T04:59:55.201Z,62.83
2022-07-27T05:04:59.970Z,63.17
2022-07-27T05:10:04.141Z,64.29
2022-07-27T05:15:06.886Z,64.12
2022-07-27T05:20:10.245Z,64.96
2022-07-27T05:25:13.416Z,64.64
2022-07-27T05:30:15.218Z,64.36
2022-07-27T05:35:17.795Z,63.25
2022-07-27T05:40:20.910Z,64.04
2022-07-27T05:45:22.944Z,62.66
2022-07-27T05:50:24.916Z,59.52
2022-07-27T05:55:28.948Z,51.66
2022-07-27T06:00:30.893Z,52.72
2022-07-27T06:05:33.109Z,57.80
2022-07-27T06:10:38.762Z,60.80
2022-07-27T06:15:40.538Z,59.24
2022-07-27T06:20:42.289Z,58.39
2022-07-27T06:25:45.361Z,58.17
2022-07-27T06:30:47.753Z,56.54
2022-07-27T06:35:49.773Z,56.70
2022-07-27T06:40:53.618Z,56.44
2022-07-27T06:45:56.067Z,58.37
2022-07-27T06:50:58.154Z,57.74
2022-07-27T06:56:01.654Z,56.66
2022-07-27T07:01:04.712Z,54.44
2022-07-27T07:06:06.818Z,53.49
2022-07-27T07:11:11.321Z,53.49
2022-07-27T07:16:13.648Z,52.90
2022-07-27T07:21:16.676Z,52.94
2022-07-27T07:26:19.780Z,50.32
2022-07-27T07:31:21.622Z,48.40
2022-07-27T07:36:23.746Z,48.66
2022-07-27T07:41:26.815Z,50.34
2022-07-27T07:46:29.009Z,50.16
2022-07-27T07:51:31.398Z,46.54
2022-07-27T07:56:35.041Z,48.30
2022-07-27T08:01:37.212Z,47.79
2022-07-27T08:06:39.121Z,47.62
2022-07-27T08:11:42.750Z,48.45
2022-07-27T08:16:44.795Z,47.87
2022-07-27T08:21:51.141Z,50.42
2022-07-27T08:26:54.683Z,49.69
2022-07-27T08:31:56.825Z,49.24
2022-07-27T08:36:59.190Z,46.80
2022-07-27T08:42:06.448Z,46.08
2022-07-27T08:47:09.931Z,46.36
2022-07-27T08:52:12.335Z,47.54
2022-07-27T08:57:15.998Z,40.29
2022-07-27T09:02:17.753Z,36.59
2022-07-27T09:07:28.542Z,42.06
2022-07-27T09:12:35.280Z,45.47
2022-07-27T09:17:54.023Z,47.24
2022-07-27T09:22:56.550Z,42.77
2022-07-27T09:28:00.091Z,34.07
2022-07-27T09:33:04.489Z,35.67
2022-07-27T09:38:18.401Z,40.52
2022-07-27T09:44:19.772Z,43.34
2022-07-27T09:48:46.302Z,46.27
2022-07-27T09:53:49.228Z,45.97
2022-07-27T09:58:54.636Z,36.25
2022-07-27T10:03:58.745Z,37.13
2022-07-27T10:09:01.891Z,39.41
2022-07-27T10:14:05.342Z,43.56
2022-07-27T10:19:14.291Z,45.72
2022-07-27T10:24:27.087Z,46.49
2022-07-27T10:29:31.709Z,46.44
2022-07-27T10:50:48.030Z,39.88
2022-07-27T10:56:09.443Z,39.67
2022-07-27T11:01:29.820Z,40.12
2022-07-27T11:07:23.494Z,38.92
2022-07-27T11:12:37.720Z,39.72
2022-07-27T11:18:03.373Z,38.48
2022-07-27T11:23:50.440Z,36.51
2022-07-27T11:29:08.975Z,38.69
2022-07-27T11:34:31.019Z,40.43
2022-07-27T11:40:05.071Z,42.19
2022-07-27T11:45:40.778Z,37.73
2022-07-27T11:51:01.362Z,39.44
2022-07-27T11:56:24.706Z,40.71
2022-07-27T12:01:50.929Z,40.19
2022-07-27T12:07:14.047Z,40.29
2022-07-27T12:12:38.479Z,41.38
2022-07-27T12:17:58.848Z,40.03
2022-07-27T12:23:19.003Z,37.51
2022-07-27T12:28:40.843Z,37.76
2022-07-27T12:34:06.164Z,36.54
2022-07-27T12:39:27.535Z,36.85
2022-07-27T12:44:49.731Z,36.33
2022-07-27T12:50:12.153Z,38.27
2022-07-27T12:55:32.488Z,37.22
2022-07-27T13:00:55.986Z,37.83
2022-07-27T13:06:16.324Z,38.26
2022-07-27T13:11:36.803Z,38.88
2022-07-27T13:16:58.562Z,38.99
2022-07-27T13:22:19.070Z,38.20
2022-07-27T13:27:39.791Z,38.52
2022-07-27T13:33:01.380Z,38.25
2022-07-27T13:38:21.961Z,37.68
2022-07-27T13:43:42.523Z,37.26
2022-07-27T13:49:04.414Z,37.16
2022-07-27T13:54:24.490Z,37.20
2022-07-27T13:59:45.104Z,36.93
2022-07-27T14:05:07.579Z,37.08
2022-07-27T14:10:30.527Z,36.58
2022-07-27T14:15:53.910Z,35.80
2022-07-27T14:21:17.037Z,37.52
2022-07-27T14:26:37.451Z,37.96
2022-07-27T14:31:58.476Z,37.35
2022-07-27T14:37:20.365Z,36.64
2022-07-27T14:42:41.560Z,38.66
2022-07-27T14:48:02.307Z,39.22
2022-07-27T14:53:24.302Z,36.18
2022-07-27T14:58:45.655Z,36.33
2022-07-27T15:04:06.763Z,37.74
2022-07-27T15:09:28.964Z,36.29
2022-07-27T15:14:49.450Z,36.82
2022-07-27T15:20:10.518Z,37.68
2022-07-27T15:25:32.344Z,37.82
2022-07-27T15:30:52.869Z,39.49
2022-07-27T15:36:32.327Z,36.27
2022-07-27T15:41:55.294Z,36.44
2022-07-27T15:47:15.709Z,36.50
2022-07-27T15:52:36.372Z,36.40
2022-07-27T15:57:58.672Z,37.75
2022-07-27T16:03:19.913Z,38.37
2022-07-27T16:08:42.419Z,37.75
2022-07-27T16:14:04.440Z,36.54
2022-07-27T16:19:25.038Z,36.32
2022-07-27T16:24:45.706Z,36.83
2022-07-27T16:30:08.313Z,36.19
2022-07-27T16:35:29.634Z,37.18
2022-07-27T16:40:50.012Z,38.34
2022-07-27T16:46:11.782Z,38.25
2022-07-27T16:51:32.408Z,36.17
2022-07-27T16:56:52.837Z,35.04
2022-07-27T17:02:14.645Z,34.75
2022-07-27T17:07:35.044Z,35.32
2022-07-27T17:12:57.709Z,35.58
2022-07-27T17:18:19.339Z,35.95
2022-07-27T17:23:40.224Z,35.92
2022-07-27T17:29:01.139Z,37.05
2022-07-27T17:34:22.769Z,38.30
2022-07-27T17:39:43.399Z,37.46
2022-07-27T17:45:04.768Z,37.65
2022-07-27T17:50:27.052Z,37.26
2022-07-27T17:55:47.649Z,38.47
2022-07-27T18:01:08.489Z,39.24
2022-07-27T18:06:30.400Z,39.04
2022-07-27T18:11:50.983Z,39.76
2022-07-27T18:17:11.237Z,40.14
2022-07-27T18:22:38.190Z,41.06
2022-07-27T18:27:58.989Z,40.71
2022-07-27T18:33:20.486Z,41.27
2022-07-27T18:38:42.185Z,41.06
2022-07-27T18:44:02.203Z,42.00
2022-07-27T18:49:22.745Z,42.59
2022-07-27T18:55:11.440Z,43.64
2022-07-27T19:00:42.833Z,43.93
2022-07-27T19:06:08.703Z,44.83
2022-07-27T19:11:32.074Z,46.12
2022-07-27T19:16:57.365Z,46.64
2022-07-27T19:22:29.406Z,47.53
2022-07-27T19:27:55.694Z,50.19
2022-07-27T19:33:21.836Z,53.39
2022-07-27T19:38:53.573Z,53.83
2022-07-27T19:44:38.698Z,52.32
2022-07-27T19:50:03.270Z,54.77
2022-07-27T19:55:30.231Z,55.06
2022-07-27T20:01:19.805Z,56.31
2022-07-27T20:06:59.600Z,56.48
2022-07-27T20:12:36.416Z,57.64
2022-07-27T20:18:04.453Z,58.69
2022-07-27T20:23:38.020Z,60.13
2022-07-27T20:29:16.483Z,61.69
2022-07-27T20:34:39.093Z,61.32
2022-07-27T20:40:02.826Z,61.74
2022-07-27T20:45:28.760Z,63.25
2022-07-27T20:50:51.595Z,62.70
2022-07-27T20:56:17.924Z,63.70
2022-07-27T21:01:38.469Z,64.29
2022-07-27T21:07:00.136Z,65.61
2022-07-27T21:12:20.437Z,65.35
2022-07-27T21:17:22.145Z,65.34
2022-07-27T21:22:25.568Z,66.17
2022-07-27T21:27:27.820Z,66.07
2022-07-27T21:32:30.964Z,67.32
2022-07-27T21:37:34.445Z,67.44
2022-07-27T21:42:36.528Z,67.74
2022-07-27T21:47:38.671Z,67.89
2022-07-27T21:52:42.231Z,67.62
2022-07-27T21:57:44.488Z,67.58
2022-07-27T22:02:46.494Z,68.35
2022-07-27T22:07:50.384Z,69.28
2022-07-27T22:12:52.578Z,69.83
2022-07-27T22:17:54.745Z,69.89
2022-07-27T22:22:58.406Z,69.91
2022-07-27T22:28:00.420Z,69.95
2022-07-27T22:33:02.669Z,70.33
2022-07-27T22:38:06.197Z,70.80
2022-07-27T22:43:08.277Z,71.04
2022-07-27T22:48:10.172Z,71.11
2022-07-27T22:53:15.023Z,71.77
2022-07-27T22:58:17.058Z,72.21
2022-07-27T23:03:19.094Z,72.54
2022-07-27T23:08:22.495Z,72.45
2022-07-27T23:13:24.569Z,72.70
2022-07-27T23:18:28.281Z,72.65
2022-07-27T23:23:33.744Z,72.95
2022-07-27T23:28:38.564Z,73.28
2022-07-27T23:33:40.321Z,73.80
2022-07-27T23:38:43.876Z,74.70
2022-07-27T23:43:46.125Z,74.94
2022-07-27T23:48:48.070Z,74.99
2022-07-27T23:53:51.554Z,75.23
2022-07-27T23:58:53.697Z,75.24
